createdAt,value
2023-06-24T00:01:35.242Z,100603.84
2023-06-24T00:04:38.167Z,100608.19
2023-06-24T00:07:46.261Z,100598.97
2023-06-24T00:10:49.868Z,100597.28
2023-06-24T00:13:52.668Z,100611.66
2023-06-24T00:16:56.165Z,100618.06
2023-06-24T00:19:59.013Z,100626.72
2023-06-24T00:23:01.873Z,100623.47
2023-06-24T00:26:04.824Z,100618.34
2023-06-24T00:29:07.614Z,100604.19
2023-06-24T00:32:10.425Z,100615.47
2023-06-24T00:35:13.515Z,100615.03
2023-06-24T00:38:16.313Z,100612.59
2023-06-24T00:41:22.337Z,100616.28
2023-06-24T00:44:25.314Z,100616.47
2023-06-24T00:47:28.200Z,100617.31
2023-06-24T00:50:30.972Z,100605.63
2023-06-24T00:53:33.821Z,100605.03
2023-06-24T00:56:39.846Z,100592.09
2023-06-24T00:59:44.394Z,100594.59
2023-06-24T01:02:51.018Z,100605.06
2023-06-24T01:05:55.472Z,100578.19
2023-06-24T01:08:59.133Z,100577.97
2023-06-24T01:12:01.953Z,100582.06
2023-06-24T01:15:06.072Z,100587.62
2023-06-24T01:18:13.342Z,100595.84
2023-06-24T01:21:29.384Z,100588.03
2023-06-24T01:25:10.182Z,100582.28
2023-06-24T01:28:35.923Z,100583.94
2023-06-24T01:31:40.324Z,100581.88
2023-06-24T01:35:05.700Z,100591.72
2023-06-24T01:38:24.162Z,100594.81
2023-06-24T01:41:28.083Z,100603.44
2023-06-24T01:44:31.773Z,100620.47
2023-06-24T01:47:35.800Z,100617.59
2023-06-24T01:50:40.724Z,100619.25
2023-06-24T01:53:47.062Z,100614.13
2023-06-24T01:56:51.190Z,100607.75
2023-06-24T01:59:56.168Z,100599.13
2023-06-24T02:02:59.463Z,100583.16
2023-06-24T02:06:03.611Z,100570.62
2023-06-24T02:09:07.261Z,100560.59
2023-06-24T02:12:10.656Z,100570.44
2023-06-24T02:15:13.729Z,100595.25
2023-06-24T02:18:17.186Z,100589.53
2023-06-24T02:21:21.543Z,100597.94
2023-06-24T02:24:24.949Z,100604.91
2023-06-24T02:27:28.026Z,100610.44
2023-06-24T02:30:30.838Z,100604.94
2023-06-24T02:33:33.645Z,100606.16
2023-06-24T02:36:36.374Z,100597.13
2023-06-24T02:39:45.397Z,100613.34
2023-06-24T02:42:48.333Z,100607.38
2023-06-24T02:45:51.506Z,100611.91
2023-06-24T02:48:54.594Z,100600.00
2023-06-24T02:51:57.439Z,100610.66
2023-06-24T02:55:00.380Z,100604.13
2023-06-24T02:58:03.879Z,100604.53
2023-06-24T03:01:08.194Z,100597.56
2023-06-24T03:04:11.014Z,100595.50
2023-06-24T03:07:14.242Z,100608.00
2023-06-24T03:10:17.099Z,100600.00
2023-06-24T03:13:19.977Z,100604.72
2023-06-24T03:16:22.808Z,100612.06
2023-06-24T03:19:25.563Z,100604.50
2023-06-24T03:22:28.343Z,100611.25
2023-06-24T03:25:31.004Z,100610.44
2023-06-24T03:28:33.914Z,100607.56
2023-06-24T03:31:36.712Z,100615.34
2023-06-24T03:34:39.494Z,100597.72
2023-06-24T03:37:42.229Z,100597.13
2023-06-24T03:40:45.260Z,100604.50
2023-06-24T03:43:48.307Z,100609.41
2023-06-24T03:46:51.100Z,100604.09
2023-06-24T03:49:53.795Z,100609.84
2023-06-24T03:52:56.501Z,100617.22
2023-06-24T03:55:59.464Z,100628.28
2023-06-24T03:59:03.880Z,100637.50
2023-06-24T04:02:10.627Z,100641.59
2023-06-24T04:05:13.391Z,100648.75
2023-06-24T04:08:16.020Z,100646.69
2023-06-24T04:11:19.232Z,100654.09
2023-06-24T04:14:21.937Z,100648.97
2023-06-24T04:17:25.219Z,100656.53
2023-06-24T04:20:27.969Z,100668.81
2023-06-24T04:23:30.690Z,100672.91
2023-06-24T04:26:33.443Z,100667.75
2023-06-24T04:29:36.128Z,100656.03
2023-06-24T04:32:38.916Z,100664.19
2023-06-24T04:35:41.752Z,100658.81
2023-06-24T04:38:44.481Z,100660.87
2023-06-24T04:41:48.076Z,100656.97
2023-06-24T04:44:53.540Z,100659.00
2023-06-24T04:47:56.438Z,100672.44
2023-06-24T04:50:59.421Z,100655.88
2023-06-24T04:54:02.476Z,100666.94
2023-06-24T04:57:10.075Z,100668.63
2023-06-24T05:00:13.155Z,100657.28
2023-06-24T05:03:15.979Z,100660.69
2023-06-24T05:06:18.802Z,100674.16
2023-06-24T05:09:21.527Z,100685.47
2023-06-24T05:12:24.382Z,100686.03
2023-06-24T05:15:27.535Z,100695.28
2023-06-24T05:18:30.287Z,100690.75
2023-06-24T05:21:32.954Z,100695.66
2023-06-24T05:24:35.847Z,100692.19
2023-06-24T05:27:38.633Z,100699.47
2023-06-24T05:30:42.780Z,100700.38
2023-06-24T05:33:45.565Z,100709.81
2023-06-24T05:36:48.277Z,100712.63
2023-06-24T05:39:51.025Z,100706.69
2023-06-24T05:42:53.798Z,100706.09
2023-06-24T05:45:56.467Z,100703.72
2023-06-24T05:48:59.285Z,100706.91
2023-06-24T05:52:02.020Z,100707.72
2023-06-24T05:55:05.152Z,100705.50
2023-06-24T05:58:07.863Z,100707.87
2023-06-24T06:01:13.764Z,100691.94
2023-06-24T06:04:16.600Z,100693.78
2023-06-24T06:07:20.251Z,100697.91
2023-06-24T06:10:23.304Z,100700.59
2023-06-24T06:13:26.012Z,100709.34
2023-06-24T06:16:29.734Z,100696.28
2023-06-24T06:19:32.424Z,100699.50
2023-06-24T06:22:39.058Z,100700.94
2023-06-24T06:25:41.812Z,100707.34
2023-06-24T06:28:44.465Z,100724.41
2023-06-24T06:31:47.226Z,100722.13
2023-06-24T06:34:50.044Z,100724.69
2023-06-24T06:37:56.871Z,100721.75
2023-06-24T06:41:00.023Z,100727.19
2023-06-24T06:44:02.864Z,100722.59
2023-06-24T06:47:05.934Z,100740.53
2023-06-24T06:50:11.769Z,100732.34
2023-06-24T06:53:14.577Z,100742.37
2023-06-24T06:56:27.039Z,100735.69
2023-06-24T06:59:29.770Z,100740.75
2023-06-24T07:02:32.561Z,100740.50
2023-06-24T07:05:38.515Z,100739.59
2023-06-24T07:08:41.962Z,100741.97
2023-06-24T07:11:44.891Z,100725.22
2023-06-24T07:14:47.705Z,100721.47
2023-06-24T07:17:50.496Z,100732.06
2023-06-24T07:20:54.917Z,100729.97
2023-06-24T07:23:57.688Z,100731.22
2023-06-24T07:27:00.430Z,100743.72
2023-06-24T07:30:03.263Z,100742.66
2023-06-24T07:33:06.892Z,100742.37
2023-06-24T07:36:11.981Z,100757.66
2023-06-24T07:39:14.955Z,100765.09
2023-06-24T07:42:20.668Z,100773.38
2023-06-24T07:45:23.734Z,100772.59
2023-06-24T07:48:26.590Z,100780.66
2023-06-24T07:51:29.387Z,100772.53
2023-06-24T07:54:32.261Z,100779.59
2023-06-24T07:57:34.955Z,100766.88
2023-06-24T08:00:39.701Z,100776.63
2023-06-24T08:03:42.810Z,100781.84
2023-06-24T08:06:45.776Z,100782.34
2023-06-24T08:09:48.516Z,100781.91
2023-06-24T08:12:51.228Z,100783.16
2023-06-24T08:15:54.025Z,100779.53
2023-06-24T08:18:56.861Z,100786.59
2023-06-24T08:21:59.602Z,100782.81
2023-06-24T08:25:02.398Z,100793.75
2023-06-24T08:28:05.258Z,100796.22
2023-06-24T08:31:08.033Z,100790.53
2023-06-24T08:34:10.807Z,100789.87
2023-06-24T08:37:13.570Z,100798.38
2023-06-24T08:40:16.330Z,100795.44
2023-06-24T08:43:19.109Z,100797.78
2023-06-24T08:46:25.865Z,100811.16
2023-06-24T08:49:32.575Z,100795.09
2023-06-24T08:52:38.096Z,100802.31
2023-06-24T08:55:50.277Z,100808.09
2023-06-24T08:58:53.248Z,100802.59
2023-06-24T09:01:55.993Z,100803.41
2023-06-24T09:04:58.821Z,100795.53
2023-06-24T09:08:01.459Z,100801.19
2023-06-24T09:11:04.494Z,100809.69
2023-06-24T09:14:07.137Z,100803.44
2023-06-24T09:17:10.850Z,100803.25
2023-06-24T09:20:13.638Z,100799.81
2023-06-24T09:23:18.314Z,100797.00
2023-06-24T09:26:20.990Z,100800.13
2023-06-24T09:29:34.139Z,100795.97
2023-06-24T09:32:37.790Z,100792.63
2023-06-24T09:35:40.767Z,100794.75
2023-06-24T09:38:45.947Z,100794.16
2023-06-24T09:41:52.454Z,100804.56
2023-06-24T09:44:57.219Z,100795.88
2023-06-24T09:48:01.508Z,100795.34
2023-06-24T09:51:05.962Z,100795.91
2023-06-24T09:54:09.981Z,100802.44
2023-06-24T09:57:13.381Z,100801.25
2023-06-24T10:00:17.936Z,100799.81
2023-06-24T10:03:21.107Z,100796.53
2023-06-24T10:06:28.576Z,100794.25
2023-06-24T10:09:31.373Z,100802.91
2023-06-24T10:12:36.567Z,100800.22
2023-06-24T10:15:39.457Z,100785.75
2023-06-24T10:18:42.578Z,100779.94
2023-06-24T10:21:49.450Z,100787.13
2023-06-24T10:24:53.752Z,100783.53
2023-06-24T10:27:56.578Z,100781.66
2023-06-24T10:30:59.369Z,100782.59
2023-06-24T10:34:02.261Z,100779.78
2023-06-24T10:37:22.078Z,100774.91
2023-06-24T10:40:54.325Z,100765.66
2023-06-24T10:43:59.339Z,100773.47
2023-06-24T10:47:02.518Z,100769.50
2023-06-24T10:50:06.959Z,100756.53
2023-06-24T10:53:10.081Z,100754.72
2023-06-24T10:56:12.830Z,100747.00
2023-06-24T10:59:15.635Z,100745.06
2023-06-24T11:02:20.455Z,100750.81
2023-06-24T11:05:23.490Z,100747.69
2023-06-24T11:08:26.672Z,100746.81
2023-06-24T11:11:30.945Z,100743.38
2023-06-24T11:14:37.853Z,100738.63
2023-06-24T11:17:42.485Z,100728.25
2023-06-24T11:20:45.647Z,100744.06
2023-06-24T11:23:48.528Z,100738.91
2023-06-24T11:26:52.856Z,100732.78
2023-06-24T11:29:59.617Z,100737.12
2023-06-24T11:33:03.745Z,100737.81
2023-06-24T11:36:11.327Z,100747.03
2023-06-24T11:39:28.589Z,100747.91
2023-06-24T11:42:31.975Z,100740.88
2023-06-24T11:45:34.852Z,100732.16
2023-06-24T11:48:41.988Z,100734.41
2023-06-24T11:51:51.759Z,100741.91
2023-06-24T11:54:54.499Z,100735.84
2023-06-24T11:58:07.642Z,100735.47
2023-06-24T12:01:10.503Z,100733.41
2023-06-24T12:04:14.911Z,100738.41
2023-06-24T12:07:17.954Z,100737.53
2023-06-24T12:10:20.802Z,100748.75
2023-06-24T12:13:24.387Z,100737.94
2023-06-24T12:16:27.961Z,100747.16
2023-06-24T12:19:30.717Z,100733.78
2023-06-24T12:22:33.623Z,100747.00
2023-06-24T12:25:36.452Z,100745.22
2023-06-24T12:28:39.522Z,100749.06
2023-06-24T12:31:42.995Z,100743.09
2023-06-24T12:34:45.760Z,100748.47
2023-06-24T12:37:49.114Z,100745.91
2023-06-24T12:40:52.016Z,100734.34
2023-06-24T12:43:54.744Z,100738.16
2023-06-24T12:46:57.532Z,100738.94
2023-06-24T12:50:00.343Z,100736.50
2023-06-24T12:53:04.395Z,100735.78
2023-06-24T12:56:07.165Z,100733.66
2023-06-24T12:59:13.036Z,100744.34
2023-06-24T13:02:15.719Z,100719.34
2023-06-24T13:05:19.410Z,100731.91
2023-06-24T13:08:22.310Z,100736.66
2023-06-24T13:11:25.084Z,100724.34
2023-06-24T13:14:29.523Z,100717.03
2023-06-24T13:17:32.671Z,100719.66
2023-06-24T13:20:35.871Z,100730.75
2023-06-24T13:23:40.096Z,100726.19
2023-06-24T13:26:43.203Z,100727.94
2023-06-24T13:29:46.239Z,100725.53
2023-06-24T13:32:50.513Z,100713.06
2023-06-24T13:35:53.986Z,100711.44
2023-06-24T13:38:56.756Z,100712.31
2023-06-24T13:41:59.639Z,100708.59
2023-06-24T13:45:03.000Z,100714.66
2023-06-24T13:48:05.883Z,100712.84
2023-06-24T13:51:08.678Z,100712.50
2023-06-24T13:54:11.517Z,100722.75
2023-06-24T13:57:14.544Z,100725.50
2023-06-24T14:00:17.584Z,100722.28
2023-06-24T14:03:20.288Z,100723.41
2023-06-24T14:06:24.188Z,100726.69
2023-06-24T14:09:26.959Z,100711.44
2023-06-24T14:12:30.125Z,100713.88
2023-06-24T14:15:32.870Z,100715.47
2023-06-24T14:18:36.226Z,100716.38
2023-06-24T14:21:39.321Z,100708.09
2023-06-24T14:24:43.238Z,100726.16
2023-06-24T14:27:45.988Z,100714.09
2023-06-24T14:30:49.312Z,100709.09
2023-06-24T14:33:52.273Z,100714.13
2023-06-24T14:36:55.023Z,100711.03
2023-06-24T14:39:57.906Z,100707.00
2023-06-24T14:43:01.182Z,100714.50
2023-06-24T14:46:04.305Z,100707.84
2023-06-24T14:49:07.114Z,100710.59
2023-06-24T14:52:10.329Z,100698.72
2023-06-24T14:55:13.295Z,100694.47
2023-06-24T14:58:17.850Z,100695.63
2023-06-24T15:01:22.181Z,100701.91
2023-06-24T15:04:25.179Z,100691.72
2023-06-24T15:07:27.938Z,100694.63
2023-06-24T15:10:31.118Z,100677.44
2023-06-24T15:13:34.109Z,100674.91
2023-06-24T15:16:36.863Z,100679.62
2023-06-24T15:19:39.591Z,100672.88
2023-06-24T15:22:43.154Z,100678.56
2023-06-24T15:25:45.806Z,100676.63
2023-06-24T15:28:49.346Z,100677.63
2023-06-24T15:31:52.092Z,100673.88
2023-06-24T15:34:55.003Z,100672.28
2023-06-24T15:37:59.321Z,100667.69
2023-06-24T15:41:02.062Z,100662.03
2023-06-24T15:44:08.103Z,100660.06
2023-06-24T15:47:11.690Z,100654.75
2023-06-24T15:50:14.498Z,100657.91
2023-06-24T15:53:17.529Z,100656.00
2023-06-24T15:56:20.215Z,100655.78
2023-06-24T15:59:26.309Z,100653.25
2023-06-24T16:02:29.103Z,100650.69
2023-06-24T16:05:31.928Z,100651.78
2023-06-24T16:08:34.647Z,100646.22
2023-06-24T16:11:37.398Z,100656.16
2023-06-24T16:14:40.145Z,100648.22
2023-06-24T16:17:42.928Z,100655.31
2023-06-24T16:20:45.866Z,100654.81
2023-06-24T16:23:49.008Z,100649.88
2023-06-24T16:26:53.147Z,100643.19
2023-06-24T16:29:56.069Z,100651.75
2023-06-24T16:32:58.851Z,100641.94
2023-06-24T16:36:01.813Z,100645.69
2023-06-24T16:39:05.184Z,100632.22
2023-06-24T16:42:08.076Z,100636.44
2023-06-24T16:45:11.011Z,100641.91
2023-06-24T16:48:13.814Z,100639.16
2023-06-24T16:51:16.724Z,100645.03
2023-06-24T16:54:20.632Z,100650.19
2023-06-24T16:57:23.609Z,100639.75
2023-06-24T17:00:26.363Z,100645.44
2023-06-24T17:03:30.527Z,100648.97
2023-06-24T17:06:36.328Z,100643.94
2023-06-24T17:09:39.073Z,100643.22
2023-06-24T17:12:42.522Z,100641.75
2023-06-24T17:15:48.653Z,100651.75
2023-06-24T17:18:51.403Z,100650.66
2023-06-24T17:21:55.319Z,100648.84
2023-06-24T17:24:58.198Z,100652.28
2023-06-24T17:28:01.009Z,100642.03
2023-06-24T17:31:03.744Z,100638.81
2023-06-24T17:34:06.506Z,100638.47
2023-06-24T17:37:15.569Z,100656.12
2023-06-24T17:40:18.269Z,100637.09
2023-06-24T17:43:27.797Z,100647.84
2023-06-24T17:46:46.981Z,100650.56
2023-06-24T17:49:52.711Z,100650.47
2023-06-24T17:52:55.514Z,100645.09
2023-06-24T17:55:58.392Z,100644.41
2023-06-24T17:59:01.132Z,100645.22
2023-06-24T18:02:04.472Z,100653.63
2023-06-24T18:05:07.916Z,100643.25
2023-06-24T18:08:10.697Z,100648.62
2023-06-24T18:11:13.383Z,100642.91
2023-06-24T18:14:32.086Z,100647.91
2023-06-24T18:17:35.912Z,100653.75
2023-06-24T18:20:49.460Z,100655.19
2023-06-24T18:23:54.777Z,100658.34
2023-06-24T18:26:57.576Z,100646.91
2023-06-24T18:30:00.325Z,100646.19
2023-06-24T18:33:06.734Z,100644.44
2023-06-24T18:36:13.795Z,100652.81
2023-06-24T18:39:18.848Z,100656.78
2023-06-24T18:42:25.427Z,100652.75
2023-06-24T18:45:28.700Z,100654.25
2023-06-24T18:48:33.719Z,100658.53
2023-06-24T18:51:36.857Z,100654.91
2023-06-24T18:54:39.806Z,100668.97
2023-06-24T18:57:44.630Z,100667.19
2023-06-24T19:00:48.014Z,100673.66
2023-06-24T19:03:50.832Z,100679.66
2023-06-24T19:06:53.724Z,100678.34
2023-06-24T19:09:56.417Z,100684.16
2023-06-24T19:12:59.746Z,100686.31
2023-06-24T19:16:02.581Z,100692.47
2023-06-24T19:19:06.939Z,100687.94
2023-06-24T19:22:09.729Z,100691.28
2023-06-24T19:25:13.300Z,100687.56
2023-06-24T19:28:16.172Z,100691.53
2023-06-24T19:31:19.209Z,100696.66
2023-06-24T19:34:22.015Z,100693.97
2023-06-24T19:37:24.652Z,100697.47
2023-06-24T19:40:27.673Z,100697.91
2023-06-24T19:43:30.388Z,100686.03
2023-06-24T19:46:41.038Z,100695.31
2023-06-24T19:49:54.338Z,100702.31
2023-06-24T19:52:57.199Z,100705.41
2023-06-24T19:56:00.024Z,100705.41
2023-06-24T19:59:02.877Z,100702.59
2023-06-24T20:02:05.932Z,100697.06
2023-06-24T20:05:08.966Z,100702.63
2023-06-24T20:08:11.683Z,100701.44
2023-06-24T20:11:14.837Z,100700.63
2023-06-24T20:14:17.610Z,100695.28
2023-06-24T20:17:20.450Z,100704.78
2023-06-24T20:20:23.202Z,100688.94
2023-06-24T20:23:26.012Z,100691.84
2023-06-24T20:26:28.834Z,100684.87
2023-06-24T20:29:31.571Z,100695.56
2023-06-24T20:32:35.793Z,100694.37
2023-06-24T20:35:38.551Z,100691.09
2023-06-24T20:38:41.270Z,100684.72
2023-06-24T20:41:44.021Z,100683.88
2023-06-24T20:44:47.241Z,100687.81
2023-06-24T20:47:50.029Z,100695.03
2023-06-24T20:50:52.800Z,100696.06
2023-06-24T20:53:55.547Z,100698.16
2023-06-24T20:56:58.409Z,100695.69
2023-06-24T21:00:01.147Z,100701.25
2023-06-24T21:03:04.044Z,100706.19
2023-06-24T21:06:07.508Z,100695.50
2023-06-24T21:09:10.237Z,100700.47
2023-06-24T21:12:13.129Z,100698.22
2023-06-24T21:15:18.310Z,100699.28
2023-06-24T21:18:21.307Z,100709.97
2023-06-24T21:21:24.067Z,100695.19
2023-06-24T21:24:27.034Z,100685.31
2023-06-24T21:27:29.727Z,100690.44
2023-06-24T21:30:32.480Z,100689.84
2023-06-24T21:33:35.172Z,100689.22
2023-06-24T21:36:38.368Z,100689.44
2023-06-24T21:39:41.085Z,100689.84
2023-06-24T21:42:43.908Z,100692.75
2023-06-24T21:45:46.608Z,100692.38
2023-06-24T21:48:49.392Z,100691.13
2023-06-24T21:51:54.504Z,100683.16
2023-06-24T21:54:57.321Z,100686.25
2023-06-24T21:58:00.035Z,100681.13
2023-06-24T22:01:08.902Z,100683.22
2023-06-24T22:04:11.722Z,100651.25
2023-06-24T22:07:14.601Z,100675.62
2023-06-24T22:10:17.388Z,100674.63
2023-06-24T22:13:28.994Z,100670.34
2023-06-24T22:16:31.733Z,100647.00
2023-06-24T22:19:37.511Z,100670.16
2023-06-24T22:22:44.366Z,100669.56
2023-06-24T22:25:47.144Z,100668.38
2023-06-24T22:28:50.539Z,100656.69
2023-06-24T22:31:53.299Z,100651.16
2023-06-24T22:34:58.901Z,100654.84
2023-06-24T22:38:01.718Z,100636.25
2023-06-24T22:41:04.830Z,100654.47
2023-06-24T22:44:07.900Z,100653.44
2023-06-24T22:47:10.685Z,100652.84
2023-06-24T22:50:13.449Z,100653.06
2023-06-24T22:53:19.255Z,100648.75
2023-06-24T22:56:22.256Z,100648.13
2023-06-24T22:59:25.278Z,100644.03
2023-06-24T23:02:31.196Z,100645.28
2023-06-24T23:05:34.216Z,100640.59
2023-06-24T23:08:37.301Z,100636.91
2023-06-24T23:11:40.156Z,100645.78
2023-06-24T23:14:43.275Z,100628.94
2023-06-24T23:17:46.289Z,100637.37
2023-06-24T23:20:49.301Z,100632.69
2023-06-24T23:23:53.461Z,100631.44
2023-06-24T23:27:00.501Z,100621.78
2023-06-24T23:30:10.278Z,100628.97
2023-06-24T23:33:19.793Z,100628.38
2023-06-24T23:36:22.738Z,100615.66
2023-06-24T23:39:25.572Z,100617.09
2023-06-24T23:42:29.062Z,100615.91
2023-06-24T23:45:32.148Z,100614.69
2023-06-24T23:48:34.959Z,100622.53
2023-06-24T23:51:37.667Z,100622.75
2023-06-24T23:54:40.348Z,100613.75
2023-06-24T23:57:43.003Z,100610.94
